Search for airport 
image banner adimage banner adimage banner ad
image banner ad

10PN - One Meridian Plaza

Located in Philadelphia, United States

ICAO - 10PN, IATA -

Data provided by Airmate  

General information

Coordinates: N39°55'50" W75°14'39"
Elevation is 560 feet MSL.
Magnetic variation is -11° East
View others Airports in Pennsylvania

Operational data

Special qualification required
Current time UTC:
Current local time:
Weather at : KPHL - Philadelphia Intl ( 7 km )
METAR: KPHL 291609Z 19010KT 10SM SCT017 BKN022 OVC050 26/21 A2996 RMK AO2 T02610206
TAF: KPHL 291612Z 2916/3018 19010KT P6SM VCSH SCT012 BKN040 TEMPO 2916/2917 BKN020 FM291930 19010KT P6SM -SHRA VCTS BKN045CB TEMPO 2922/3002 VRB10G30KT 2SM TSRA OVC050CB FM300400 25008KT P6SM BKN020 FM301400 32010G18KT P6SM SCT250
View NOTAMs / SUP AIP / TFR affecting this airport [VIEW]
Communications frequencies: [VIEW]

Runways:

Airport contact information

Address: Philadelphia United States

Satellite view of 10PN